sensor_id;sensor_type;location;lat;lon;timestamp;P1;durP1;ratioP1;P2;durP2;ratioP2
14205;SDS011;7186;48.800;9.216;2023-10-08T00:00:21;10.60;;;5.90;;
14205;SDS011;7186;48.800;9.216;2023-10-08T00:03:05;10.50;;;6.50;;
14205;SDS011;7186;48.800;9.216;2023-10-08T00:05:35;10.50;;;5.63;;
14205;SDS011;7186;48.800;9.216;2023-10-08T00:08:01;7.80;;;5.37;;
14205;SDS011;7186;48.800;9.216;2023-10-08T00:10:27;10.13;;;5.40;;
14205;SDS011;7186;48.800;9.216;2023-10-08T00:12:52;10.40;;;5.40;;
14205;SDS011;7186;48.800;9.216;2023-10-08T00:15:17;11.27;;;5.37;;
14205;SDS011;7186;48.800;9.216;2023-10-08T00:17:42;10.13;;;5.30;;
14205;SDS011;7186;48.800;9.216;2023-10-08T00:20:10;7.67;;;4.80;;
14205;SDS011;7186;48.800;9.216;2023-10-08T00:22:41;9.70;;;5.27;;
14205;SDS011;7186;48.800;9.216;2023-10-08T00:25:06;10.70;;;4.77;;
14205;SDS011;7186;48.800;9.216;2023-10-08T00:27:36;18.27;;;6.80;;
14205;SDS011;7186;48.800;9.216;2023-10-08T00:30:04;11.50;;;5.93;;
14205;SDS011;7186;48.800;9.216;2023-10-08T00:32:38;10.93;;;5.37;;
14205;SDS011;7186;48.800;9.216;2023-10-08T00:35:03;8.37;;;5.57;;
14205;SDS011;7186;48.800;9.216;2023-10-08T00:37:38;10.07;;;5.53;;
14205;SDS011;7186;48.800;9.216;2023-10-08T00:40:05;14.50;;;5.60;;
14205;SDS011;7186;48.800;9.216;2023-10-08T00:42:36;10.80;;;5.10;;
14205;SDS011;7186;48.800;9.216;2023-10-08T00:45:02;8.93;;;5.10;;
14205;SDS011;7186;48.800;9.216;2023-10-08T00:47:29;9.53;;;4.90;;
14205;SDS011;7186;48.800;9.216;2023-10-08T00:49:59;10.03;;;5.37;;
14205;SDS011;7186;48.800;9.216;2023-10-08T00:52:33;8.20;;;4.70;;
14205;SDS011;7186;48.800;9.216;2023-10-08T00:55:10;10.43;;;4.70;;
14205;SDS011;7186;48.800;9.216;2023-10-08T00:57:45;11.90;;;5.00;;
14205;SDS011;7186;48.800;9.216;2023-10-08T01:00:14;10.00;;;5.30;;
14205;SDS011;7186;48.800;9.216;2023-10-08T01:02:46;12.13;;;5.50;;
14205;SDS011;7186;48.800;9.216;2023-10-08T01:05:13;11.13;;;5.57;;
14205;SDS011;7186;48.800;9.216;2023-10-08T01:07:40;8.70;;;4.37;;
14205;SDS011;7186;48.800;9.216;2023-10-08T01:10:09;9.57;;;4.97;;
14205;SDS011;7186;48.800;9.216;2023-10-08T01:12:35;8.50;;;4.57;;
14205;SDS011;7186;48.800;9.216;2023-10-08T01:15:09;8.67;;;4.80;;
14205;SDS011;7186;48.800;9.216;2023-10-08T01:17:53;7.47;;;4.87;;
14205;SDS011;7186;48.800;9.216;2023-10-08T01:20:41;10.10;;;5.20;;
14205;SDS011;7186;48.800;9.216;2023-10-08T01:23:16;8.63;;;4.63;;
14205;SDS011;7186;48.800;9.216;2023-10-08T01:25:42;7.27;;;4.67;;
14205;SDS011;7186;48.800;9.216;2023-10-08T01:28:08;8.93;;;4.87;;
14205;SDS011;7186;48.800;9.216;2023-10-08T01:30:39;9.63;;;4.40;;
14205;SDS011;7186;48.800;9.216;2023-10-08T01:33:07;8.83;;;5.10;;
14205;SDS011;7186;48.800;9.216;2023-10-08T01:35:36;7.77;;;4.53;;
14205;SDS011;7186;48.800;9.216;2023-10-08T01:38:01;8.10;;;4.60;;
14205;SDS011;7186;48.800;9.216;2023-10-08T01:40:28;8.43;;;4.60;;
14205;SDS011;7186;48.800;9.216;2023-10-08T01:42:55;9.10;;;4.80;;
14205;SDS011;7186;48.800;9.216;2023-10-08T01:45:24;7.77;;;4.80;;
14205;SDS011;7186;48.800;9.216;2023-10-08T01:47:50;9.17;;;4.60;;
14205;SDS011;7186;48.800;9.216;2023-10-08T01:50:17;12.50;;;6.20;;
14205;SDS011;7186;48.800;9.216;2023-10-08T01:52:54;10.23;;;5.37;;
14205;SDS011;7186;48.800;9.216;2023-10-08T01:55:19;7.23;;;4.63;;
14205;SDS011;7186;48.800;9.216;2023-10-08T01:57:45;13.97;;;5.07;;
14205;SDS011;7186;48.800;9.216;2023-10-08T02:00:11;9.50;;;4.80;;
14205;SDS011;7186;48.800;9.216;2023-10-08T02:02:36;8.57;;;4.27;;
14205;SDS011;7186;48.800;9.216;2023-10-08T02:05:01;10.67;;;5.17;;
14205;SDS011;7186;48.800;9.216;2023-10-08T02:07:27;9.23;;;5.03;;
14205;SDS011;7186;48.800;9.216;2023-10-08T02:09:53;11.90;;;5.27;;
14205;SDS011;7186;48.800;9.216;2023-10-08T02:12:18;10.03;;;4.73;;
14205;SDS011;7186;48.800;9.216;2023-10-08T02:14:44;8.77;;;5.20;;
14205;SDS011;7186;48.800;9.216;2023-10-08T02:17:09;12.10;;;5.93;;
14205;SDS011;7186;48.800;9.216;2023-10-08T02:19:34;14.63;;;8.47;;
14205;SDS011;7186;48.800;9.216;2023-10-08T02:22:02;18.00;;;9.93;;
14205;SDS011;7186;48.800;9.216;2023-10-08T02:24:30;18.30;;;9.37;;
14205;SDS011;7186;48.800;9.216;2023-10-08T02:26:55;11.97;;;6.00;;
14205;SDS011;7186;48.800;9.216;2023-10-08T02:29:24;12.90;;;5.70;;
14205;SDS011;7186;48.800;9.216;2023-10-08T02:31:49;11.93;;;5.93;;
14205;SDS011;7186;48.800;9.216;2023-10-08T02:34:15;9.53;;;5.70;;
14205;SDS011;7186;48.800;9.216;2023-10-08T02:36:40;12.97;;;5.57;;
14205;SDS011;7186;48.800;9.216;2023-10-08T02:39:06;11.67;;;5.63;;
14205;SDS011;7186;48.800;9.216;2023-10-08T02:41:41;15.83;;;6.13;;
14205;SDS011;7186;48.800;9.216;2023-10-08T02:44:07;15.73;;;5.40;;
14205;SDS011;7186;48.800;9.216;2023-10-08T02:46:36;11.77;;;5.27;;
14205;SDS011;7186;48.800;9.216;2023-10-08T02:49:02;19.43;;;5.90;;
14205;SDS011;7186;48.800;9.216;2023-10-08T02:51:28;12.27;;;5.37;;
14205;SDS011;7186;48.800;9.216;2023-10-08T02:53:54;13.93;;;5.53;;
14205;SDS011;7186;48.800;9.216;2023-10-08T02:56:19;15.03;;;4.73;;
14205;SDS011;7186;48.800;9.216;2023-10-08T02:58:44;9.40;;;4.67;;
14205;SDS011;7186;48.800;9.216;2023-10-08T03:01:09;11.97;;;5.60;;
14205;SDS011;7186;48.800;9.216;2023-10-08T03:03:40;11.77;;;4.93;;
14205;SDS011;7186;48.800;9.216;2023-10-08T03:06:07;10.03;;;5.00;;
14205;SDS011;7186;48.800;9.216;2023-10-08T03:08:36;15.40;;;4.93;;
14205;SDS011;7186;48.800;9.216;2023-10-08T03:11:02;11.40;;;5.83;;
14205;SDS011;7186;48.800;9.216;2023-10-08T03:13:30;9.83;;;5.27;;
14205;SDS011;7186;48.800;9.216;2023-10-08T03:15:55;10.20;;;4.50;;
14205;SDS011;7186;48.800;9.216;2023-10-08T03:18:27;6.67;;;4.43;;
14205;SDS011;7186;48.800;9.216;2023-10-08T03:21:01;8.63;;;4.40;;
14205;SDS011;7186;48.800;9.216;2023-10-08T03:23:29;8.57;;;4.70;;
14205;SDS011;7186;48.800;9.216;2023-10-08T03:26:01;10.33;;;4.10;;
14205;SDS011;7186;48.800;9.216;2023-10-08T03:28:36;9.80;;;4.43;;
14205;SDS011;7186;48.800;9.216;2023-10-08T03:31:02;8.70;;;4.30;;
14205;SDS011;7186;48.800;9.216;2023-10-08T03:33:33;9.83;;;4.60;;
14205;SDS011;7186;48.800;9.216;2023-10-08T03:35:59;7.23;;;4.40;;
14205;SDS011;7186;48.800;9.216;2023-10-08T03:38:29;8.67;;;4.30;;
14205;SDS011;7186;48.800;9.216;2023-10-08T03:41:09;8.00;;;4.33;;
14205;SDS011;7186;48.800;9.216;2023-10-08T03:43:40;8.87;;;4.40;;
14205;SDS011;7186;48.800;9.216;2023-10-08T03:46:18;11.50;;;4.20;;
14205;SDS011;7186;48.800;9.216;2023-10-08T03:48:43;8.03;;;4.23;;
14205;SDS011;7186;48.800;9.216;2023-10-08T03:51:13;9.40;;;4.43;;
14205;SDS011;7186;48.800;9.216;2023-10-08T03:53:39;7.23;;;4.23;;
14205;SDS011;7186;48.800;9.216;2023-10-08T03:56:23;7.60;;;3.83;;
14205;SDS011;7186;48.800;9.216;2023-10-08T03:58:49;11.13;;;4.67;;
14205;SDS011;7186;48.800;9.216;2023-10-08T04:01:14;9.10;;;4.83;;
14205;SDS011;7186;48.800;9.216;2023-10-08T04:03:44;9.13;;;5.07;;
14205;SDS011;7186;48.800;9.216;2023-10-08T04:06:21;10.40;;;4.80;;
14205;SDS011;7186;48.800;9.216;2023-10-08T04:08:59;8.07;;;5.07;;
14205;SDS011;7186;48.800;9.216;2023-10-08T04:11:51;9.83;;;4.97;;
14205;SDS011;7186;48.800;9.216;2023-10-08T04:14:19;7.77;;;4.40;;
14205;SDS011;7186;48.800;9.216;2023-10-08T04:16:45;10.70;;;4.73;;
14205;SDS011;7186;48.800;9.216;2023-10-08T04:19:10;9.43;;;4.57;;
14205;SDS011;7186;48.800;9.216;2023-10-08T04:21:36;8.97;;;4.57;;
14205;SDS011;7186;48.800;9.216;2023-10-08T04:24:02;7.77;;;4.10;;
14205;SDS011;7186;48.800;9.216;2023-10-08T04:26:33;8.20;;;5.00;;
14205;SDS011;7186;48.800;9.216;2023-10-08T04:28:59;7.97;;;4.27;;
14205;SDS011;7186;48.800;9.216;2023-10-08T04:31:27;7.30;;;4.70;;
14205;SDS011;7186;48.800;9.216;2023-10-08T04:33:53;11.80;;;5.13;;
14205;SDS011;7186;48.800;9.216;2023-10-08T04:36:19;8.37;;;4.30;;
14205;SDS011;7186;48.800;9.216;2023-10-08T04:38:45;13.70;;;5.13;;
14205;SDS011;7186;48.800;9.216;2023-10-08T04:41:13;12.73;;;5.00;;
14205;SDS011;7186;48.800;9.216;2023-10-08T04:43:42;12.13;;;5.07;;
14205;SDS011;7186;48.800;9.216;2023-10-08T04:46:08;9.03;;;4.23;;
14205;SDS011;7186;48.800;9.216;2023-10-08T04:49:05;10.93;;;5.40;;
14205;SDS011;7186;48.800;9.216;2023-10-08T04:51:32;10.40;;;4.53;;
14205;SDS011;7186;48.800;9.216;2023-10-08T04:54:08;14.67;;;5.13;;
14205;SDS011;7186;48.800;9.216;2023-10-08T04:56:34;8.87;;;4.67;;
14205;SDS011;7186;48.800;9.216;2023-10-08T04:58:59;10.07;;;5.40;;
14205;SDS011;7186;48.800;9.216;2023-10-08T05:01:25;6.80;;;4.70;;
14205;SDS011;7186;48.800;9.216;2023-10-08T05:04:03;10.80;;;4.40;;
14205;SDS011;7186;48.800;9.216;2023-10-08T05:06:29;7.80;;;4.67;;
14205;SDS011;7186;48.800;9.216;2023-10-08T05:12:06;6.57;;;3.90;;
14205;SDS011;7186;48.800;9.216;2023-10-08T05:14:50;6.87;;;3.63;;
14205;SDS011;7186;48.800;9.216;2023-10-08T05:17:41;7.13;;;3.87;;
14205;SDS011;7186;48.800;9.216;2023-10-08T05:20:16;6.73;;;3.90;;
14205;SDS011;7186;48.800;9.216;2023-10-08T05:22:44;8.37;;;4.10;;
14205;SDS011;7186;48.800;9.216;2023-10-08T05:25:12;7.77;;;4.00;;
14205;SDS011;7186;48.800;9.216;2023-10-08T05:27:40;7.70;;;4.10;;
14205;SDS011;7186;48.800;9.216;2023-10-08T05:30:12;8.03;;;4.10;;
14205;SDS011;7186;48.800;9.216;2023-10-08T05:32:41;9.87;;;4.07;;
14205;SDS011;7186;48.800;9.216;2023-10-08T05:35:29;8.17;;;4.37;;
14205;SDS011;7186;48.800;9.216;2023-10-08T05:38:25;8.63;;;4.33;;
14205;SDS011;7186;48.800;9.216;2023-10-08T05:40:59;9.23;;;4.40;;
14205;SDS011;7186;48.800;9.216;2023-10-08T05:43:42;9.30;;;4.63;;
14205;SDS011;7186;48.800;9.216;2023-10-08T05:46:08;8.70;;;4.30;;
14205;SDS011;7186;48.800;9.216;2023-10-08T05:48:58;7.10;;;3.60;;
14205;SDS011;7186;48.800;9.216;2023-10-08T05:54:13;9.87;;;4.37;;
14205;SDS011;7186;48.800;9.216;2023-10-08T05:59:31;7.97;;;3.83;;
14205;SDS011;7186;48.800;9.216;2023-10-08T06:02:14;7.93;;;4.33;;
14205;SDS011;7186;48.800;9.216;2023-10-08T06:04:52;7.90;;;4.00;;
14205;SDS011;7186;48.800;9.216;2023-10-08T06:07:40;10.83;;;4.63;;
14205;SDS011;7186;48.800;9.216;2023-10-08T06:10:17;8.80;;;4.30;;
14205;SDS011;7186;48.800;9.216;2023-10-08T06:13:05;7.30;;;3.90;;
14205;SDS011;7186;48.800;9.216;2023-10-08T06:15:49;8.30;;;4.60;;
14205;SDS011;7186;48.800;9.216;2023-10-08T06:18:24;8.23;;;4.37;;
14205;SDS011;7186;48.800;9.216;2023-10-08T06:20:53;8.57;;;4.13;;
14205;SDS011;7186;48.800;9.216;2023-10-08T06:23:24;11.77;;;4.93;;
14205;SDS011;7186;48.800;9.216;2023-10-08T06:25:50;8.30;;;4.17;;
14205;SDS011;7186;48.800;9.216;2023-10-08T06:28:42;8.87;;;4.87;;
14205;SDS011;7186;48.800;9.216;2023-10-08T06:31:08;10.73;;;5.00;;
14205;SDS011;7186;48.800;9.216;2023-10-08T06:33:43;5.40;;;3.87;;
14205;SDS011;7186;48.800;9.216;2023-10-08T06:36:08;7.43;;;4.20;;
14205;SDS011;7186;48.800;9.216;2023-10-08T06:38:37;8.17;;;4.33;;
14205;SDS011;7186;48.800;9.216;2023-10-08T06:41:06;6.93;;;3.83;;
14205;SDS011;7186;48.800;9.216;2023-10-08T06:43:43;7.90;;;4.30;;
14205;SDS011;7186;48.800;9.216;2023-10-08T06:46:09;9.30;;;4.70;;
14205;SDS011;7186;48.800;9.216;2023-10-08T06:48:38;9.90;;;4.53;;
14205;SDS011;7186;48.800;9.216;2023-10-08T06:51:07;7.83;;;4.23;;
14205;SDS011;7186;48.800;9.216;2023-10-08T06:53:37;7.20;;;4.17;;
14205;SDS011;7186;48.800;9.216;2023-10-08T06:56:03;9.73;;;5.03;;
14205;SDS011;7186;48.800;9.216;2023-10-08T06:58:29;10.97;;;5.17;;
14205;SDS011;7186;48.800;9.216;2023-10-08T07:00:57;8.63;;;5.07;;
14205;SDS011;7186;48.800;9.216;2023-10-08T07:03:23;7.30;;;4.10;;
14205;SDS011;7186;48.800;9.216;2023-10-08T07:05:49;8.40;;;4.73;;
14205;SDS011;7186;48.800;9.216;2023-10-08T07:08:25;10.20;;;4.53;;
14205;SDS011;7186;48.800;9.216;2023-10-08T07:10:52;9.80;;;4.87;;
14205;SDS011;7186;48.800;9.216;2023-10-08T07:13:18;11.27;;;4.60;;
14205;SDS011;7186;48.800;9.216;2023-10-08T07:15:46;9.80;;;4.67;;
14205;SDS011;7186;48.800;9.216;2023-10-08T07:18:12;7.83;;;4.83;;
14205;SDS011;7186;48.800;9.216;2023-10-08T07:20:46;7.43;;;4.23;;
14205;SDS011;7186;48.800;9.216;2023-10-08T07:23:18;11.43;;;5.10;;
14205;SDS011;7186;48.800;9.216;2023-10-08T07:25:51;9.93;;;5.50;;
14205;SDS011;7186;48.800;9.216;2023-10-08T07:28:17;12.97;;;5.07;;
14205;SDS011;7186;48.800;9.216;2023-10-08T07:30:44;7.63;;;4.60;;
14205;SDS011;7186;48.800;9.216;2023-10-08T07:33:10;9.70;;;5.93;;
14205;SDS011;7186;48.800;9.216;2023-10-08T07:35:43;8.13;;;4.40;;
14205;SDS011;7186;48.800;9.216;2023-10-08T07:38:16;9.13;;;5.20;;
14205;SDS011;7186;48.800;9.216;2023-10-08T07:40:41;12.17;;;5.87;;
14205;SDS011;7186;48.800;9.216;2023-10-08T07:43:06;12.13;;;6.50;;
14205;SDS011;7186;48.800;9.216;2023-10-08T07:45:33;11.60;;;5.70;;
14205;SDS011;7186;48.800;9.216;2023-10-08T07:48:00;12.53;;;6.00;;
14205;SDS011;7186;48.800;9.216;2023-10-08T07:50:25;9.73;;;5.10;;
14205;SDS011;7186;48.800;9.216;2023-10-08T07:52:54;10.73;;;5.23;;
14205;SDS011;7186;48.800;9.216;2023-10-08T07:55:21;10.43;;;5.17;;
14205;SDS011;7186;48.800;9.216;2023-10-08T07:57:46;9.60;;;4.63;;
14205;SDS011;7186;48.800;9.216;2023-10-08T08:00:12;15.77;;;5.30;;
14205;SDS011;7186;48.800;9.216;2023-10-08T08:02:43;10.03;;;4.60;;
14205;SDS011;7186;48.800;9.216;2023-10-08T08:05:09;7.43;;;4.80;;
14205;SDS011;7186;48.800;9.216;2023-10-08T08:07:34;7.50;;;4.57;;
14205;SDS011;7186;48.800;9.216;2023-10-08T08:09:59;8.40;;;5.03;;
14205;SDS011;7186;48.800;9.216;2023-10-08T08:12:25;9.20;;;4.17;;
14205;SDS011;7186;48.800;9.216;2023-10-08T08:14:51;7.90;;;4.07;;
14205;SDS011;7186;48.800;9.216;2023-10-08T08:17:17;11.57;;;4.33;;
14205;SDS011;7186;48.800;9.216;2023-10-08T08:19:43;11.63;;;5.60;;
14205;SDS011;7186;48.800;9.216;2023-10-08T08:22:18;11.63;;;5.00;;
14205;SDS011;7186;48.800;9.216;2023-10-08T08:24:47;10.67;;;5.40;;
14205;SDS011;7186;48.800;9.216;2023-10-08T08:27:12;9.23;;;5.00;;
14205;SDS011;7186;48.800;9.216;2023-10-08T08:29:48;8.40;;;4.53;;
14205;SDS011;7186;48.800;9.216;2023-10-08T08:32:14;7.70;;;4.70;;
14205;SDS011;7186;48.800;9.216;2023-10-08T08:34:41;11.50;;;4.83;;
14205;SDS011;7186;48.800;9.216;2023-10-08T08:37:08;10.67;;;5.70;;
14205;SDS011;7186;48.800;9.216;2023-10-08T08:39:34;11.97;;;5.70;;
14205;SDS011;7186;48.800;9.216;2023-10-08T08:42:01;12.00;;;7.23;;
14205;SDS011;7186;48.800;9.216;2023-10-08T08:44:29;11.30;;;6.83;;
14205;SDS011;7186;48.800;9.216;2023-10-08T08:46:55;13.83;;;7.83;;
14205;SDS011;7186;48.800;9.216;2023-10-08T08:49:23;14.30;;;6.07;;
14205;SDS011;7186;48.800;9.216;2023-10-08T08:51:48;10.10;;;5.80;;
14205;SDS011;7186;48.800;9.216;2023-10-08T08:54:18;10.20;;;5.10;;
14205;SDS011;7186;48.800;9.216;2023-10-08T08:56:44;10.13;;;4.93;;
14205;SDS011;7186;48.800;9.216;2023-10-08T08:59:10;10.07;;;4.60;;
14205;SDS011;7186;48.800;9.216;2023-10-08T09:01:39;9.13;;;4.93;;
14205;SDS011;7186;48.800;9.216;2023-10-08T09:04:05;9.00;;;4.43;;
14205;SDS011;7186;48.800;9.216;2023-10-08T09:06:36;8.10;;;4.63;;
14205;SDS011;7186;48.800;9.216;2023-10-08T09:09:05;7.97;;;4.77;;
14205;SDS011;7186;48.800;9.216;2023-10-08T09:11:47;12.40;;;7.50;;
14205;SDS011;7186;48.800;9.216;2023-10-08T09:14:12;16.10;;;9.50;;
14205;SDS011;7186;48.800;9.216;2023-10-08T09:16:37;10.40;;;6.70;;
14205;SDS011;7186;48.800;9.216;2023-10-08T09:19:03;14.27;;;6.83;;
14205;SDS011;7186;48.800;9.216;2023-10-08T09:21:29;16.87;;;7.17;;
14205;SDS011;7186;48.800;9.216;2023-10-08T09:23:55;10.00;;;6.20;;
14205;SDS011;7186;48.800;9.216;2023-10-08T09:26:24;12.67;;;5.97;;
14205;SDS011;7186;48.800;9.216;2023-10-08T09:28:50;10.30;;;5.10;;
14205;SDS011;7186;48.800;9.216;2023-10-08T09:31:16;10.83;;;5.03;;
14205;SDS011;7186;48.800;9.216;2023-10-08T09:33:42;9.23;;;5.50;;
14205;SDS011;7186;48.800;9.216;2023-10-08T09:36:09;8.00;;;5.03;;
14205;SDS011;7186;48.800;9.216;2023-10-08T09:38:43;7.93;;;4.10;;
14205;SDS011;7186;48.800;9.216;2023-10-08T09:41:09;6.53;;;4.37;;
14205;SDS011;7186;48.800;9.216;2023-10-08T09:43:34;8.13;;;4.67;;
14205;SDS011;7186;48.800;9.216;2023-10-08T09:46:03;7.90;;;4.00;;
14205;SDS011;7186;48.800;9.216;2023-10-08T09:48:32;7.00;;;3.83;;
14205;SDS011;7186;48.800;9.216;2023-10-08T09:51:02;10.40;;;3.63;;
14205;SDS011;7186;48.800;9.216;2023-10-08T09:53:40;5.83;;;3.70;;
14205;SDS011;7186;48.800;9.216;2023-10-08T09:56:12;6.97;;;3.67;;
14205;SDS011;7186;48.800;9.216;2023-10-08T09:58:39;6.77;;;3.20;;
14205;SDS011;7186;48.800;9.216;2023-10-08T10:01:04;8.73;;;3.90;;
14205;SDS011;7186;48.800;9.216;2023-10-08T10:03:30;9.33;;;3.93;;
14205;SDS011;7186;48.800;9.216;2023-10-08T10:05:55;5.97;;;3.30;;
14205;SDS011;7186;48.800;9.216;2023-10-08T10:08:25;8.17;;;4.00;;
14205;SDS011;7186;48.800;9.216;2023-10-08T10:10:57;6.93;;;4.13;;
14205;SDS011;7186;48.800;9.216;2023-10-08T10:13:23;7.10;;;3.43;;
14205;SDS011;7186;48.800;9.216;2023-10-08T10:15:53;8.60;;;3.93;;
14205;SDS011;7186;48.800;9.216;2023-10-08T10:20:51;10.13;;;4.40;;
14205;SDS011;7186;48.800;9.216;2023-10-08T10:26:04;9.20;;;4.37;;
14205;SDS011;7186;48.800;9.216;2023-10-08T10:28:30;8.37;;;4.10;;
14205;SDS011;7186;48.800;9.216;2023-10-08T10:30:55;6.23;;;3.83;;
14205;SDS011;7186;48.800;9.216;2023-10-08T10:33:31;7.30;;;3.80;;
14205;SDS011;7186;48.800;9.216;2023-10-08T10:35:57;9.03;;;3.80;;
14205;SDS011;7186;48.800;9.216;2023-10-08T10:38:22;8.07;;;4.20;;
14205;SDS011;7186;48.800;9.216;2023-10-08T10:40:51;9.10;;;4.00;;
14205;SDS011;7186;48.800;9.216;2023-10-08T10:43:23;12.77;;;4.23;;
14205;SDS011;7186;48.800;9.216;2023-10-08T10:45:54;6.80;;;3.53;;
14205;SDS011;7186;48.800;9.216;2023-10-08T10:48:20;6.40;;;3.43;;
14205;SDS011;7186;48.800;9.216;2023-10-08T10:50:46;8.93;;;3.60;;
14205;SDS011;7186;48.800;9.216;2023-10-08T10:53:31;9.30;;;3.70;;
14205;SDS011;7186;48.800;9.216;2023-10-08T10:55:58;7.93;;;3.73;;
14205;SDS011;7186;48.800;9.216;2023-10-08T10:58:49;6.07;;;3.50;;
14205;SDS011;7186;48.800;9.216;2023-10-08T11:01:21;6.73;;;3.43;;
14205;SDS011;7186;48.800;9.216;2023-10-08T11:03:50;5.60;;;3.67;;
14205;SDS011;7186;48.800;9.216;2023-10-08T11:06:17;7.07;;;4.13;;
14205;SDS011;7186;48.800;9.216;2023-10-08T11:08:47;6.77;;;4.30;;
14205;SDS011;7186;48.800;9.216;2023-10-08T11:11:13;8.53;;;4.83;;
14205;SDS011;7186;48.800;9.216;2023-10-08T11:13:42;7.77;;;4.70;;
14205;SDS011;7186;48.800;9.216;2023-10-08T11:16:08;5.07;;;3.60;;
14205;SDS011;7186;48.800;9.216;2023-10-08T11:18:34;7.27;;;4.20;;
14205;SDS011;7186;48.800;9.216;2023-10-08T11:21:09;6.57;;;4.20;;
14205;SDS011;7186;48.800;9.216;2023-10-08T11:23:50;6.23;;;4.13;;
14205;SDS011;7186;48.800;9.216;2023-10-08T11:26:24;6.50;;;4.00;;
14205;SDS011;7186;48.800;9.216;2023-10-08T11:29:00;8.37;;;3.97;;
14205;SDS011;7186;48.800;9.216;2023-10-08T11:31:27;7.03;;;4.23;;
14205;SDS011;7186;48.800;9.216;2023-10-08T11:33:58;5.93;;;3.90;;
14205;SDS011;7186;48.800;9.216;2023-10-08T11:36:23;6.20;;;3.73;;
14205;SDS011;7186;48.800;9.216;2023-10-08T11:38:55;5.40;;;3.83;;
14205;SDS011;7186;48.800;9.216;2023-10-08T11:41:26;10.93;;;5.50;;
14205;SDS011;7186;48.800;9.216;2023-10-08T11:43:53;8.20;;;4.40;;
14205;SDS011;7186;48.800;9.216;2023-10-08T11:46:25;9.93;;;3.93;;
14205;SDS011;7186;48.800;9.216;2023-10-08T11:48:52;9.37;;;4.80;;
14205;SDS011;7186;48.800;9.216;2023-10-08T11:51:17;9.67;;;4.50;;
14205;SDS011;7186;48.800;9.216;2023-10-08T11:53:43;8.17;;;4.50;;
14205;SDS011;7186;48.800;9.216;2023-10-08T11:56:09;7.67;;;4.83;;
14205;SDS011;7186;48.800;9.216;2023-10-08T11:58:39;10.30;;;5.10;;
14205;SDS011;7186;48.800;9.216;2023-10-08T12:01:04;7.33;;;4.20;;
14205;SDS011;7186;48.800;9.216;2023-10-08T12:03:30;6.90;;;4.20;;
14205;SDS011;7186;48.800;9.216;2023-10-08T12:05:56;9.80;;;4.83;;
14205;SDS011;7186;48.800;9.216;2023-10-08T12:08:25;7.40;;;4.23;;
14205;SDS011;7186;48.800;9.216;2023-10-08T12:10:52;8.63;;;5.47;;
14205;SDS011;7186;48.800;9.216;2023-10-08T12:13:19;9.87;;;4.40;;
14205;SDS011;7186;48.800;9.216;2023-10-08T12:15:49;8.57;;;4.30;;
14205;SDS011;7186;48.800;9.216;2023-10-08T12:18:15;8.07;;;4.30;;
14205;SDS011;7186;48.800;9.216;2023-10-08T12:20:43;6.80;;;4.10;;
14205;SDS011;7186;48.800;9.216;2023-10-08T12:23:09;7.93;;;3.93;;
14205;SDS011;7186;48.800;9.216;2023-10-08T12:25:36;7.13;;;3.87;;
14205;SDS011;7186;48.800;9.216;2023-10-08T12:28:03;8.93;;;4.20;;
14205;SDS011;7186;48.800;9.216;2023-10-08T12:30:29;9.60;;;4.00;;
14205;SDS011;7186;48.800;9.216;2023-10-08T12:33:00;10.30;;;3.93;;
14205;SDS011;7186;48.800;9.216;2023-10-08T12:35:26;8.30;;;4.43;;
14205;SDS011;7186;48.800;9.216;2023-10-08T12:37:51;7.80;;;4.80;;
14205;SDS011;7186;48.800;9.216;2023-10-08T12:40:16;9.13;;;5.33;;
14205;SDS011;7186;48.800;9.216;2023-10-08T12:42:48;9.37;;;4.53;;
14205;SDS011;7186;48.800;9.216;2023-10-08T12:45:13;10.47;;;5.27;;
14205;SDS011;7186;48.800;9.216;2023-10-08T12:47:38;8.70;;;5.30;;
14205;SDS011;7186;48.800;9.216;2023-10-08T12:50:04;8.83;;;4.80;;
14205;SDS011;7186;48.800;9.216;2023-10-08T12:52:32;7.37;;;4.73;;
14205;SDS011;7186;48.800;9.216;2023-10-08T12:54:59;8.00;;;4.77;;
14205;SDS011;7186;48.800;9.216;2023-10-08T12:57:29;14.33;;;5.43;;
14205;SDS011;7186;48.800;9.216;2023-10-08T12:59:58;7.60;;;4.83;;
14205;SDS011;7186;48.800;9.216;2023-10-08T13:02:24;11.80;;;5.17;;
14205;SDS011;7186;48.800;9.216;2023-10-08T13:04:53;8.47;;;4.90;;
14205;SDS011;7186;48.800;9.216;2023-10-08T13:07:20;6.93;;;3.90;;
14205;SDS011;7186;48.800;9.216;2023-10-08T13:09:46;15.17;;;4.80;;
14205;SDS011;7186;48.800;9.216;2023-10-08T13:12:12;10.40;;;5.00;;
14205;SDS011;7186;48.800;9.216;2023-10-08T13:14:39;10.50;;;5.23;;
14205;SDS011;7186;48.800;9.216;2023-10-08T13:17:05;9.10;;;4.70;;
14205;SDS011;7186;48.800;9.216;2023-10-08T13:19:35;9.07;;;5.00;;
14205;SDS011;7186;48.800;9.216;2023-10-08T13:22:00;11.43;;;5.10;;
14205;SDS011;7186;48.800;9.216;2023-10-08T13:24:26;10.77;;;5.40;;
14205;SDS011;7186;48.800;9.216;2023-10-08T13:26:53;9.00;;;5.00;;
14205;SDS011;7186;48.800;9.216;2023-10-08T13:29:18;10.57;;;4.90;;
14205;SDS011;7186;48.800;9.216;2023-10-08T13:31:44;10.80;;;5.00;;
14205;SDS011;7186;48.800;9.216;2023-10-08T13:34:10;10.43;;;4.00;;
14205;SDS011;7186;48.800;9.216;2023-10-08T13:36:37;11.40;;;4.90;;
14205;SDS011;7186;48.800;9.216;2023-10-08T13:39:03;10.07;;;4.07;;
14205;SDS011;7186;48.800;9.216;2023-10-08T13:41:28;11.27;;;4.20;;
14205;SDS011;7186;48.800;9.216;2023-10-08T13:43:54;13.20;;;4.60;;
14205;SDS011;7186;48.800;9.216;2023-10-08T13:46:30;14.77;;;4.47;;
14205;SDS011;7186;48.800;9.216;2023-10-08T13:48:56;13.33;;;4.33;;
14205;SDS011;7186;48.800;9.216;2023-10-08T13:51:23;9.20;;;4.13;;
14205;SDS011;7186;48.800;9.216;2023-10-08T13:53:50;9.73;;;3.97;;
14205;SDS011;7186;48.800;9.216;2023-10-08T13:56:17;9.70;;;4.60;;
14205;SDS011;7186;48.800;9.216;2023-10-08T13:58:44;12.23;;;3.83;;
14205;SDS011;7186;48.800;9.216;2023-10-08T14:01:11;13.57;;;4.57;;
14205;SDS011;7186;48.800;9.216;2023-10-08T14:03:47;11.33;;;4.40;;
14205;SDS011;7186;48.800;9.216;2023-10-08T14:06:12;9.13;;;4.03;;
14205;SDS011;7186;48.800;9.216;2023-10-08T14:08:37;16.70;;;4.53;;
14205;SDS011;7186;48.800;9.216;2023-10-08T14:11:04;12.30;;;3.93;;
14205;SDS011;7186;48.800;9.216;2023-10-08T14:13:29;8.83;;;3.53;;
14205;SDS011;7186;48.800;9.216;2023-10-08T14:15:56;9.03;;;4.00;;
14205;SDS011;7186;48.800;9.216;2023-10-08T14:18:22;9.73;;;3.93;;
14205;SDS011;7186;48.800;9.216;2023-10-08T14:20:52;12.53;;;4.30;;
14205;SDS011;7186;48.800;9.216;2023-10-08T14:23:19;12.93;;;4.30;;
14205;SDS011;7186;48.800;9.216;2023-10-08T14:25:47;10.43;;;4.50;;
14205;SDS011;7186;48.800;9.216;2023-10-08T14:28:14;10.63;;;4.27;;
14205;SDS011;7186;48.800;9.216;2023-10-08T14:30:47;8.00;;;4.30;;
14205;SDS011;7186;48.800;9.216;2023-10-08T14:33:15;9.93;;;3.87;;
14205;SDS011;7186;48.800;9.216;2023-10-08T14:35:49;9.47;;;3.70;;
14205;SDS011;7186;48.800;9.216;2023-10-08T14:38:33;7.20;;;4.07;;
14205;SDS011;7186;48.800;9.216;2023-10-08T14:41:16;8.97;;;3.77;;
14205;SDS011;7186;48.800;9.216;2023-10-08T14:44:00;11.53;;;4.23;;
14205;SDS011;7186;48.800;9.216;2023-10-08T14:46:29;11.83;;;4.03;;
14205;SDS011;7186;48.800;9.216;2023-10-08T14:48:56;10.37;;;4.30;;
14205;SDS011;7186;48.800;9.216;2023-10-08T14:51:21;10.30;;;4.00;;
14205;SDS011;7186;48.800;9.216;2023-10-08T14:53:49;10.40;;;3.97;;
14205;SDS011;7186;48.800;9.216;2023-10-08T14:56:14;13.10;;;3.87;;
14205;SDS011;7186;48.800;9.216;2023-10-08T14:58:40;10.30;;;4.60;;
14205;SDS011;7186;48.800;9.216;2023-10-08T15:01:06;8.87;;;4.03;;
14205;SDS011;7186;48.800;9.216;2023-10-08T15:03:31;9.10;;;4.33;;
14205;SDS011;7186;48.800;9.216;2023-10-08T15:05:56;9.03;;;4.17;;
14205;SDS011;7186;48.800;9.216;2023-10-08T15:08:22;8.50;;;4.60;;
14205;SDS011;7186;48.800;9.216;2023-10-08T15:10:48;9.07;;;3.83;;
14205;SDS011;7186;48.800;9.216;2023-10-08T15:13:14;9.57;;;4.40;;
14205;SDS011;7186;48.800;9.216;2023-10-08T15:15:40;11.13;;;4.73;;
14205;SDS011;7186;48.800;9.216;2023-10-08T15:18:08;7.27;;;4.23;;
14205;SDS011;7186;48.800;9.216;2023-10-08T15:20:36;7.70;;;4.30;;